sensor_id;sensor_type;location;lat;lon;timestamp;P1;durP1;ratioP1;P2;durP2;ratioP2
47519;SDS011;33252;48.122;11.538;2022-10-26T00:02:17;4.57;;;2.13;;
47519;SDS011;33252;48.122;11.538;2022-10-26T00:04:46;5.45;;;2.08;;
47519;SDS011;33252;48.122;11.538;2022-10-26T00:07:11;6.38;;;2.00;;
47519;SDS011;33252;48.122;11.538;2022-10-26T00:09:37;5.20;;;2.50;;
47519;SDS011;33252;48.122;11.538;2022-10-26T00:12:03;3.80;;;2.05;;
47519;SDS011;33252;48.122;11.538;2022-10-26T00:14:28;3.53;;;2.17;;
47519;SDS011;33252;48.122;11.538;2022-10-26T00:16:54;4.35;;;1.58;;
47519;SDS011;33252;48.122;11.538;2022-10-26T00:19:20;8.27;;;2.10;;
47519;SDS011;33252;48.122;11.538;2022-10-26T00:21:46;6.00;;;1.40;;
47519;SDS011;33252;48.122;11.538;2022-10-26T00:24:11;3.22;;;1.73;;
47519;SDS011;33252;48.122;11.538;2022-10-26T00:26:37;3.08;;;1.88;;
47519;SDS011;33252;48.122;11.538;2022-10-26T00:29:05;3.85;;;1.77;;
47519;SDS011;33252;48.122;11.538;2022-10-26T00:31:31;4.40;;;2.30;;
47519;SDS011;33252;48.122;11.538;2022-10-26T00:33:58;4.53;;;1.83;;
47519;SDS011;33252;48.122;11.538;2022-10-26T00:36:24;4.78;;;2.10;;
47519;SDS011;33252;48.122;11.538;2022-10-26T00:38:50;4.28;;;1.60;;
47519;SDS011;33252;48.122;11.538;2022-10-26T00:41:19;5.70;;;1.60;;
47519;SDS011;33252;48.122;11.538;2022-10-26T00:43:47;4.00;;;1.52;;
47519;SDS011;33252;48.122;11.538;2022-10-26T00:46:35;4.78;;;1.73;;
47519;SDS011;33252;48.122;11.538;2022-10-26T00:49:03;10.38;;;2.80;;
47519;SDS011;33252;48.122;11.538;2022-10-26T00:51:37;5.88;;;2.10;;
47519;SDS011;33252;48.122;11.538;2022-10-26T00:54:09;5.72;;;1.67;;
47519;SDS011;33252;48.122;11.538;2022-10-26T00:56:38;4.40;;;1.30;;
47519;SDS011;33252;48.122;11.538;2022-10-26T00:59:05;3.00;;;1.30;;
47519;SDS011;33252;48.122;11.538;2022-10-26T01:01:34;3.05;;;2.05;;
47519;SDS011;33252;48.122;11.538;2022-10-26T01:04:01;3.85;;;1.70;;
47519;SDS011;33252;48.122;11.538;2022-10-26T01:06:28;1.88;;;1.25;;
47519;SDS011;33252;48.122;11.538;2022-10-26T01:08:55;3.95;;;1.15;;
47519;SDS011;33252;48.122;11.538;2022-10-26T01:11:20;3.28;;;1.75;;
47519;SDS011;33252;48.122;11.538;2022-10-26T01:13:46;3.25;;;1.30;;
47519;SDS011;33252;48.122;11.538;2022-10-26T01:37:58;1.83;;;1.05;;
47519;SDS011;33252;48.122;11.538;2022-10-26T01:40:34;2.90;;;1.08;;
47519;SDS011;33252;48.122;11.538;2022-10-26T01:43:22;3.10;;;1.13;;
47519;SDS011;33252;48.122;11.538;2022-10-26T01:45:52;4.97;;;1.13;;
47519;SDS011;33252;48.122;11.538;2022-10-26T01:48:19;2.15;;;0.98;;
47519;SDS011;33252;48.122;11.538;2022-10-26T01:50:49;4.10;;;1.02;;
47519;SDS011;33252;48.122;11.538;2022-10-26T01:53:17;4.55;;;1.40;;
47519;SDS011;33252;48.122;11.538;2022-10-26T01:55:45;2.47;;;0.90;;
47519;SDS011;33252;48.122;11.538;2022-10-26T02:01:01;2.25;;;1.15;;
47519;SDS011;33252;48.122;11.538;2022-10-26T02:06:41;2.42;;;1.30;;
47519;SDS011;33252;48.122;11.538;2022-10-26T02:09:28;2.45;;;1.08;;
47519;SDS011;33252;48.122;11.538;2022-10-26T02:12:03;1.65;;;1.10;;
47519;SDS011;33252;48.122;11.538;2022-10-26T02:14:50;5.15;;;1.50;;
47519;SDS011;33252;48.122;11.538;2022-10-26T02:20:17;2.72;;;1.20;;
47519;SDS011;33252;48.122;11.538;2022-10-26T02:22:59;3.05;;;1.10;;
47519;SDS011;33252;48.122;11.538;2022-10-26T02:25:29;2.97;;;0.98;;
47519;SDS011;33252;48.122;11.538;2022-10-26T02:27:59;4.45;;;1.20;;
47519;SDS011;33252;48.122;11.538;2022-10-26T02:30:29;5.60;;;1.52;;
47519;SDS011;33252;48.122;11.538;2022-10-26T02:32:57;4.25;;;1.08;;
47519;SDS011;33252;48.122;11.538;2022-10-26T02:35:25;2.70;;;1.20;;
47519;SDS011;33252;48.122;11.538;2022-10-26T02:37:55;1.65;;;0.93;;
47519;SDS011;33252;48.122;11.538;2022-10-26T02:40:25;3.25;;;1.02;;
47519;SDS011;33252;48.122;11.538;2022-10-26T02:42:52;3.75;;;1.05;;
47519;SDS011;33252;48.122;11.538;2022-10-26T02:45:21;2.25;;;1.13;;
47519;SDS011;33252;48.122;11.538;2022-10-26T02:47:51;2.83;;;0.98;;
47519;SDS011;33252;48.122;11.538;2022-10-26T02:50:19;1.38;;;0.85;;
47519;SDS011;33252;48.122;11.538;2022-10-26T02:52:56;2.60;;;1.27;;
47519;SDS011;33252;48.122;11.538;2022-10-26T02:55:39;4.05;;;1.30;;
47519;SDS011;33252;48.122;11.538;2022-10-26T02:58:15;4.80;;;1.35;;
47519;SDS011;33252;48.122;11.538;2022-10-26T03:00:50;2.15;;;1.80;;
47519;SDS011;33252;48.122;11.538;2022-10-26T03:03:17;1.90;;;1.10;;
47519;SDS011;33252;48.122;11.538;2022-10-26T03:05:43;2.25;;;1.20;;
47519;SDS011;33252;48.122;11.538;2022-10-26T03:08:09;1.70;;;1.00;;
47519;SDS011;33252;48.122;11.538;2022-10-26T03:10:37;1.77;;;1.33;;
47519;SDS011;33252;48.122;11.538;2022-10-26T03:13:05;3.38;;;1.33;;
47519;SDS011;33252;48.122;11.538;2022-10-26T03:15:31;5.25;;;0.95;;
47519;SDS011;33252;48.122;11.538;2022-10-26T03:17:57;3.90;;;1.00;;
47519;SDS011;33252;48.122;11.538;2022-10-26T03:20:22;3.10;;;1.15;;
47519;SDS011;33252;48.122;11.538;2022-10-26T03:22:48;2.00;;;1.20;;
47519;SDS011;33252;48.122;11.538;2022-10-26T03:25:14;3.30;;;1.10;;
47519;SDS011;33252;48.122;11.538;2022-10-26T03:27:40;2.67;;;1.02;;
47519;SDS011;33252;48.122;11.538;2022-10-26T03:30:07;2.55;;;0.98;;
47519;SDS011;33252;48.122;11.538;2022-10-26T03:32:33;2.40;;;0.88;;
47519;SDS011;33252;48.122;11.538;2022-10-26T03:34:59;2.53;;;1.15;;
47519;SDS011;33252;48.122;11.538;2022-10-26T03:37:25;3.53;;;1.42;;
47519;SDS011;33252;48.122;11.538;2022-10-26T03:39:50;4.47;;;2.28;;
47519;SDS011;33252;48.122;11.538;2022-10-26T03:42:16;3.97;;;2.08;;
47519;SDS011;33252;48.122;11.538;2022-10-26T03:44:41;3.20;;;1.48;;
47519;SDS011;33252;48.122;11.538;2022-10-26T03:47:07;2.30;;;0.88;;
47519;SDS011;33252;48.122;11.538;2022-10-26T03:49:33;1.40;;;0.80;;
47519;SDS011;33252;48.122;11.538;2022-10-26T03:51:59;4.13;;;1.08;;
47519;SDS011;33252;48.122;11.538;2022-10-26T03:54:25;1.60;;;0.77;;
47519;SDS011;33252;48.122;11.538;2022-10-26T03:56:51;3.70;;;1.30;;
47519;SDS011;33252;48.122;11.538;2022-10-26T03:59:17;4.25;;;1.25;;
47519;SDS011;33252;48.122;11.538;2022-10-26T04:01:42;1.85;;;1.02;;
47519;SDS011;33252;48.122;11.538;2022-10-26T04:04:08;2.70;;;0.90;;
47519;SDS011;33252;48.122;11.538;2022-10-26T04:06:34;2.53;;;1.42;;
47519;SDS011;33252;48.122;11.538;2022-10-26T04:09:00;3.85;;;0.85;;
47519;SDS011;33252;48.122;11.538;2022-10-26T04:11:29;2.90;;;1.30;;
47519;SDS011;33252;48.122;11.538;2022-10-26T04:13:55;2.35;;;0.70;;
47519;SDS011;33252;48.122;11.538;2022-10-26T04:16:23;2.97;;;1.05;;
47519;SDS011;33252;48.122;11.538;2022-10-26T04:18:49;2.58;;;1.35;;
47519;SDS011;33252;48.122;11.538;2022-10-26T04:21:15;6.38;;;1.38;;
47519;SDS011;33252;48.122;11.538;2022-10-26T04:23:41;4.07;;;1.20;;
47519;SDS011;33252;48.122;11.538;2022-10-26T04:26:06;4.88;;;1.98;;
47519;SDS011;33252;48.122;11.538;2022-10-26T04:28:32;1.63;;;0.70;;
47519;SDS011;33252;48.122;11.538;2022-10-26T04:30:58;4.90;;;1.00;;
47519;SDS011;33252;48.122;11.538;2022-10-26T04:33:23;4.60;;;1.08;;
47519;SDS011;33252;48.122;11.538;2022-10-26T04:35:49;1.88;;;1.17;;
47519;SDS011;33252;48.122;11.538;2022-10-26T04:38:15;3.15;;;1.15;;
47519;SDS011;33252;48.122;11.538;2022-10-26T04:40:40;5.60;;;1.83;;
47519;SDS011;33252;48.122;11.538;2022-10-26T04:43:06;5.50;;;1.33;;
47519;SDS011;33252;48.122;11.538;2022-10-26T04:45:31;7.28;;;1.77;;
47519;SDS011;33252;48.122;11.538;2022-10-26T04:48:07;2.20;;;1.40;;
47519;SDS011;33252;48.122;11.538;2022-10-26T04:50:37;2.58;;;1.38;;
47519;SDS011;33252;48.122;11.538;2022-10-26T04:53:04;8.27;;;3.42;;
47519;SDS011;33252;48.122;11.538;2022-10-26T04:55:30;4.60;;;2.17;;
47519;SDS011;33252;48.122;11.538;2022-10-26T04:57:56;4.25;;;1.77;;
47519;SDS011;33252;48.122;11.538;2022-10-26T05:00:22;5.78;;;2.00;;
47519;SDS011;33252;48.122;11.538;2022-10-26T05:02:47;3.83;;;1.40;;
47519;SDS011;33252;48.122;11.538;2022-10-26T05:05:13;3.42;;;1.70;;
47519;SDS011;33252;48.122;11.538;2022-10-26T05:07:39;3.97;;;1.65;;
47519;SDS011;33252;48.122;11.538;2022-10-26T05:10:05;11.00;;;1.98;;
47519;SDS011;33252;48.122;11.538;2022-10-26T05:12:31;4.15;;;1.52;;
47519;SDS011;33252;48.122;11.538;2022-10-26T05:14:57;3.95;;;1.92;;
47519;SDS011;33252;48.122;11.538;2022-10-26T05:17:26;3.47;;;1.08;;
47519;SDS011;33252;48.122;11.538;2022-10-26T05:19:52;3.13;;;1.40;;
47519;SDS011;33252;48.122;11.538;2022-10-26T05:22:22;3.53;;;1.23;;
47519;SDS011;33252;48.122;11.538;2022-10-26T05:24:48;3.63;;;1.92;;
47519;SDS011;33252;48.122;11.538;2022-10-26T05:27:14;2.88;;;1.48;;
47519;SDS011;33252;48.122;11.538;2022-10-26T05:29:40;4.13;;;1.40;;
47519;SDS011;33252;48.122;11.538;2022-10-26T05:32:05;2.95;;;1.25;;
47519;SDS011;33252;48.122;11.538;2022-10-26T05:34:31;5.53;;;1.60;;
47519;SDS011;33252;48.122;11.538;2022-10-26T05:36:57;4.43;;;2.15;;
47519;SDS011;33252;48.122;11.538;2022-10-26T05:39:22;2.95;;;1.77;;
47519;SDS011;33252;48.122;11.538;2022-10-26T05:41:48;3.20;;;2.03;;
47519;SDS011;33252;48.122;11.538;2022-10-26T05:44:13;4.97;;;1.35;;
47519;SDS011;33252;48.122;11.538;2022-10-26T05:46:39;5.00;;;1.60;;
47519;SDS011;33252;48.122;11.538;2022-10-26T05:49:05;3.20;;;1.65;;
47519;SDS011;33252;48.122;11.538;2022-10-26T05:51:33;2.78;;;1.40;;
47519;SDS011;33252;48.122;11.538;2022-10-26T05:54:01;2.17;;;1.10;;
47519;SDS011;33252;48.122;11.538;2022-10-26T05:56:34;2.35;;;1.50;;
47519;SDS011;33252;48.122;11.538;2022-10-26T05:59:02;2.67;;;1.40;;
47519;SDS011;33252;48.122;11.538;2022-10-26T06:04:37;5.10;;;1.60;;
47519;SDS011;33252;48.122;11.538;2022-10-26T06:07:10;3.38;;;1.67;;
47519;SDS011;33252;48.122;11.538;2022-10-26T06:09:38;3.03;;;1.50;;
47519;SDS011;33252;48.122;11.538;2022-10-26T06:12:05;5.60;;;1.73;;
47519;SDS011;33252;48.122;11.538;2022-10-26T06:14:32;3.70;;;1.70;;
47519;SDS011;33252;48.122;11.538;2022-10-26T06:22:35;4.07;;;1.90;;
47519;SDS011;33252;48.122;11.538;2022-10-26T06:30:19;5.78;;;2.30;;
47519;SDS011;33252;48.122;11.538;2022-10-26T06:32:47;5.18;;;2.35;;
47519;SDS011;33252;48.122;11.538;2022-10-26T06:37:53;8.20;;;2.40;;
47519;SDS011;33252;48.122;11.538;2022-10-26T06:40:21;4.22;;;2.33;;
47519;SDS011;33252;48.122;11.538;2022-10-26T06:42:47;2.60;;;1.83;;
47519;SDS011;33252;48.122;11.538;2022-10-26T06:45:14;3.60;;;1.92;;
47519;SDS011;33252;48.122;11.538;2022-10-26T06:55:50;7.82;;;2.92;;
47519;SDS011;33252;48.122;11.538;2022-10-26T06:58:20;6.57;;;2.30;;
47519;SDS011;33252;48.122;11.538;2022-10-26T07:00:50;5.63;;;2.30;;
47519;SDS011;33252;48.122;11.538;2022-10-26T07:03:18;6.00;;;1.80;;
47519;SDS011;33252;48.122;11.538;2022-10-26T07:05:43;6.45;;;1.90;;
47519;SDS011;33252;48.122;11.538;2022-10-26T07:08:10;3.55;;;2.35;;
47519;SDS011;33252;48.122;11.538;2022-10-26T07:10:36;5.75;;;1.67;;
47519;SDS011;33252;48.122;11.538;2022-10-26T07:13:06;5.75;;;2.53;;
47519;SDS011;33252;48.122;11.538;2022-10-26T07:15:33;3.80;;;2.15;;
47519;SDS011;33252;48.122;11.538;2022-10-26T07:18:01;6.25;;;1.88;;
47519;SDS011;33252;48.122;11.538;2022-10-26T07:20:34;8.45;;;2.47;;
47519;SDS011;33252;48.122;11.538;2022-10-26T07:23:04;4.15;;;1.98;;
47519;SDS011;33252;48.122;11.538;2022-10-26T07:25:31;7.13;;;2.22;;
47519;SDS011;33252;48.122;11.538;2022-10-26T07:27:58;6.72;;;2.00;;
47519;SDS011;33252;48.122;11.538;2022-10-26T07:30:27;5.47;;;1.77;;
47519;SDS011;33252;48.122;11.538;2022-10-26T07:33:00;8.73;;;1.80;;
47519;SDS011;33252;48.122;11.538;2022-10-26T07:35:27;2.42;;;1.73;;
47519;SDS011;33252;48.122;11.538;2022-10-26T07:37:57;3.72;;;1.65;;
47519;SDS011;33252;48.122;11.538;2022-10-26T07:40:23;4.40;;;1.35;;
47519;SDS011;33252;48.122;11.538;2022-10-26T07:42:50;2.40;;;1.20;;
47519;SDS011;33252;48.122;11.538;2022-10-26T07:45:16;2.35;;;1.13;;
47519;SDS011;33252;48.122;11.538;2022-10-26T07:47:42;2.72;;;1.10;;
47519;SDS011;33252;48.122;11.538;2022-10-26T07:50:10;1.38;;;0.70;;
47519;SDS011;33252;48.122;11.538;2022-10-26T07:52:36;4.18;;;1.67;;
47519;SDS011;33252;48.122;11.538;2022-10-26T07:55:03;3.95;;;1.40;;
47519;SDS011;33252;48.122;11.538;2022-10-26T07:57:29;3.33;;;1.17;;
47519;SDS011;33252;48.122;11.538;2022-10-26T07:59:54;4.00;;;1.33;;
47519;SDS011;33252;48.122;11.538;2022-10-26T08:02:20;4.07;;;1.40;;
47519;SDS011;33252;48.122;11.538;2022-10-26T08:04:46;1.75;;;0.63;;
47519;SDS011;33252;48.122;11.538;2022-10-26T08:07:11;2.08;;;1.13;;
47519;SDS011;33252;48.122;11.538;2022-10-26T08:09:37;4.43;;;1.65;;
47519;SDS011;33252;48.122;11.538;2022-10-26T08:12:03;1.67;;;0.80;;
47519;SDS011;33252;48.122;11.538;2022-10-26T08:14:29;2.40;;;0.80;;
47519;SDS011;33252;48.122;11.538;2022-10-26T08:16:55;1.90;;;0.77;;
47519;SDS011;33252;48.122;11.538;2022-10-26T08:19:21;5.50;;;1.00;;
47519;SDS011;33252;48.122;11.538;2022-10-26T08:21:46;1.58;;;0.82;;
47519;SDS011;33252;48.122;11.538;2022-10-26T08:24:12;2.10;;;0.60;;
47519;SDS011;33252;48.122;11.538;2022-10-26T08:26:38;2.00;;;0.70;;
47519;SDS011;33252;48.122;11.538;2022-10-26T08:29:03;1.52;;;0.80;;
47519;SDS011;33252;48.122;11.538;2022-10-26T08:31:29;2.13;;;0.70;;
47519;SDS011;33252;48.122;11.538;2022-10-26T08:33:55;2.08;;;1.27;;
47519;SDS011;33252;48.122;11.538;2022-10-26T08:36:22;3.45;;;0.90;;
47519;SDS011;33252;48.122;11.538;2022-10-26T08:38:49;1.73;;;0.70;;
47519;SDS011;33252;48.122;11.538;2022-10-26T08:41:16;3.95;;;1.00;;
47519;SDS011;33252;48.122;11.538;2022-10-26T08:43:55;5.68;;;0.70;;
47519;SDS011;33252;48.122;11.538;2022-10-26T08:46:28;1.95;;;0.70;;
47519;SDS011;33252;48.122;11.538;2022-10-26T08:49:43;3.05;;;0.90;;
47519;SDS011;33252;48.122;11.538;2022-10-26T08:51:57;4.30;;;0.70;;
47519;SDS011;33252;48.122;11.538;2022-10-26T08:54:36;2.25;;;1.00;;
47519;SDS011;33252;48.122;11.538;2022-10-26T08:57:25;4.82;;;0.70;;
47519;SDS011;33252;48.122;11.538;2022-10-26T08:59:59;1.77;;;1.00;;
47519;SDS011;33252;48.122;11.538;2022-10-26T09:02:28;2.72;;;0.70;;
47519;SDS011;33252;48.122;11.538;2022-10-26T09:04:54;2.47;;;0.60;;
47519;SDS011;33252;48.122;11.538;2022-10-26T09:10:22;1.95;;;1.00;;
47519;SDS011;33252;48.122;11.538;2022-10-26T09:26:28;1.33;;;0.35;;
47519;SDS011;33252;48.122;11.538;2022-10-26T09:29:04;2.00;;;0.40;;
47519;SDS011;33252;48.122;11.538;2022-10-26T09:31:38;1.13;;;0.50;;
47519;SDS011;33252;48.122;11.538;2022-10-26T09:34:06;4.78;;;0.60;;
47519;SDS011;33252;48.122;11.538;2022-10-26T09:36:36;1.15;;;0.70;;
47519;SDS011;33252;48.122;11.538;2022-10-26T09:39:11;3.88;;;0.60;;
47519;SDS011;33252;48.122;11.538;2022-10-26T09:41:47;3.95;;;0.88;;
47519;SDS011;33252;48.122;11.538;2022-10-26T09:44:23;2.28;;;0.60;;
47519;SDS011;33252;48.122;11.538;2022-10-26T09:49:52;1.85;;;0.52;;
47519;SDS011;33252;48.122;11.538;2022-10-26T09:52:22;7.78;;;2.05;;
47519;SDS011;33252;48.122;11.538;2022-10-26T09:54:48;2.55;;;0.75;;
47519;SDS011;33252;48.122;11.538;2022-10-26T09:57:14;2.75;;;1.00;;
47519;SDS011;33252;48.122;11.538;2022-10-26T09:59:42;4.97;;;1.02;;
47519;SDS011;33252;48.122;11.538;2022-10-26T10:04:57;0.70;;;0.52;;
47519;SDS011;33252;48.122;11.538;2022-10-26T10:07:23;4.20;;;0.95;;
47519;SDS011;33252;48.122;11.538;2022-10-26T10:10:05;0.93;;;0.50;;
47519;SDS011;33252;48.122;11.538;2022-10-26T10:12:47;3.10;;;1.00;;
47519;SDS011;33252;48.122;11.538;2022-10-26T10:15:25;2.58;;;0.57;;
47519;SDS011;33252;48.122;11.538;2022-10-26T10:17:51;3.28;;;0.80;;
47519;SDS011;33252;48.122;11.538;2022-10-26T10:20:31;3.67;;;0.70;;
47519;SDS011;33252;48.122;11.538;2022-10-26T10:23:01;3.45;;;1.02;;
47519;SDS011;33252;48.122;11.538;2022-10-26T10:25:36;4.03;;;0.50;;
47519;SDS011;33252;48.122;11.538;2022-10-26T10:28:22;2.40;;;0.60;;
47519;SDS011;33252;48.122;11.538;2022-10-26T10:30:53;9.35;;;0.88;;
47519;SDS011;33252;48.122;11.538;2022-10-26T10:33:26;1.65;;;0.45;;
47519;SDS011;33252;48.122;11.538;2022-10-26T10:36:00;3.40;;;0.55;;
47519;SDS011;33252;48.122;11.538;2022-10-26T10:38:29;4.22;;;1.08;;
47519;SDS011;33252;48.122;11.538;2022-10-26T10:41:04;2.90;;;0.70;;
47519;SDS011;33252;48.122;11.538;2022-10-26T10:43:42;1.50;;;0.65;;
47519;SDS011;33252;48.122;11.538;2022-10-26T10:48:44;4.03;;;0.95;;
47519;SDS011;33252;48.122;11.538;2022-10-26T10:51:12;4.65;;;1.08;;
47519;SDS011;33252;48.122;11.538;2022-10-26T10:53:51;4.03;;;0.88;;
47519;SDS011;33252;48.122;11.538;2022-10-26T11:01:57;4.30;;;0.80;;
47519;SDS011;33252;48.122;11.538;2022-10-26T11:07:16;4.15;;;1.17;;
47519;SDS011;33252;48.122;11.538;2022-10-26T11:09:45;3.15;;;1.00;;
47519;SDS011;33252;48.122;11.538;2022-10-26T11:12:32;4.25;;;1.77;;
47519;SDS011;33252;48.122;11.538;2022-10-26T11:15:27;4.10;;;1.15;;
47519;SDS011;33252;48.122;11.538;2022-10-26T11:17:59;3.75;;;1.27;;
47519;SDS011;33252;48.122;11.538;2022-10-26T11:20:44;5.28;;;1.30;;
47519;SDS011;33252;48.122;11.538;2022-10-26T11:23:22;4.47;;;1.60;;
47519;SDS011;33252;48.122;11.538;2022-10-26T11:26:13;5.40;;;0.80;;
47519;SDS011;33252;48.122;11.538;2022-10-26T11:28:48;3.65;;;0.90;;
47519;SDS011;33252;48.122;11.538;2022-10-26T11:31:22;3.50;;;1.10;;
47519;SDS011;33252;48.122;11.538;2022-10-26T11:37:11;6.88;;;1.65;;
47519;SDS011;33252;48.122;11.538;2022-10-26T11:48:01;4.40;;;1.48;;
47519;SDS011;33252;48.122;11.538;2022-10-26T11:50:50;3.53;;;0.98;;
47519;SDS011;33252;48.122;11.538;2022-10-26T11:55:49;7.43;;;2.88;;
47519;SDS011;33252;48.122;11.538;2022-10-26T11:58:16;5.45;;;1.20;;
47519;SDS011;33252;48.122;11.538;2022-10-26T12:00:53;3.50;;;1.35;;
47519;SDS011;33252;48.122;11.538;2022-10-26T12:03:25;7.53;;;2.33;;
47519;SDS011;33252;48.122;11.538;2022-10-26T12:08:24;11.73;;;2.70;;
47519;SDS011;33252;48.122;11.538;2022-10-26T12:10:59;4.97;;;1.30;;
47519;SDS011;33252;48.122;11.538;2022-10-26T12:13:32;8.38;;;1.67;;
47519;SDS011;33252;48.122;11.538;2022-10-26T12:16:18;6.35;;;1.73;;
47519;SDS011;33252;48.122;11.538;2022-10-26T12:19:27;7.47;;;1.30;;
47519;SDS011;33252;48.122;11.538;2022-10-26T12:22:13;7.78;;;1.33;;
47519;SDS011;33252;48.122;11.538;2022-10-26T12:24:45;6.70;;;1.35;;
47519;SDS011;33252;48.122;11.538;2022-10-26T12:37:59;8.77;;;1.50;;
47519;SDS011;33252;48.122;11.538;2022-10-26T12:45:39;5.90;;;1.67;;
47519;SDS011;33252;48.122;11.538;2022-10-26T12:48:19;6.97;;;1.85;;
47519;SDS011;33252;48.122;11.538;2022-10-26T12:50:49;6.93;;;1.52;;
47519;SDS011;33252;48.122;11.538;2022-10-26T12:53:19;5.75;;;1.33;;
47519;SDS011;33252;48.122;11.538;2022-10-26T13:00:50;8.88;;;1.55;;
47519;SDS011;33252;48.122;11.538;2022-10-26T13:08:44;5.05;;;1.40;;
47519;SDS011;33252;48.122;11.538;2022-10-26T13:11:15;4.72;;;1.15;;
47519;SDS011;33252;48.122;11.538;2022-10-26T13:14:02;4.13;;;1.80;;
47519;SDS011;33252;48.122;11.538;2022-10-26T13:16:30;5.63;;;1.63;;
47519;SDS011;33252;48.122;11.538;2022-10-26T13:18:56;8.57;;;1.25;;
47519;SDS011;33252;48.122;11.538;2022-10-26T13:21:23;4.75;;;1.67;;
47519;SDS011;33252;48.122;11.538;2022-10-26T13:26:20;8.57;;;1.48;;
47519;SDS011;33252;48.122;11.538;2022-10-26T13:33:53;5.28;;;1.90;;
47519;SDS011;33252;48.122;11.538;2022-10-26T13:39:14;6.97;;;2.92;;
47519;SDS011;33252;48.122;11.538;2022-10-26T13:41:44;7.53;;;1.27;;
47519;SDS011;33252;48.122;11.538;2022-10-26T13:44:20;6.03;;;1.00;;
47519;SDS011;33252;48.122;11.538;2022-10-26T13:46:52;3.40;;;1.30;;
47519;SDS011;33252;48.122;11.538;2022-10-26T13:49:24;8.80;;;1.75;;
47519;SDS011;33252;48.122;11.538;2022-10-26T13:51:54;6.07;;;1.73;;
47519;SDS011;33252;48.122;11.538;2022-10-26T13:54:29;6.55;;;1.70;;
47519;SDS011;33252;48.122;11.538;2022-10-26T14:00:08;2.80;;;1.15;;
47519;SDS011;33252;48.122;11.538;2022-10-26T14:02:47;7.30;;;1.58;;
47519;SDS011;33252;48.122;11.538;2022-10-26T14:05:14;6.82;;;1.25;;
47519;SDS011;33252;48.122;11.538;2022-10-26T14:12:53;8.50;;;1.63;;
47519;SDS011;33252;48.122;11.538;2022-10-26T14:15:23;9.10;;;2.03;;
47519;SDS011;33252;48.122;11.538;2022-10-26T14:17:52;5.95;;;1.58;;
47519;SDS011;33252;48.122;11.538;2022-10-26T14:20:20;5.85;;;1.52;;
47519;SDS011;33252;48.122;11.538;2022-10-26T14:22:47;6.93;;;1.85;;
47519;SDS011;33252;48.122;11.538;2022-10-26T14:25:21;4.68;;;1.48;;
47519;SDS011;33252;48.122;11.538;2022-10-26T14:27:55;2.83;;;0.98;;
47519;SDS011;33252;48.122;11.538;2022-10-26T14:32:49;5.25;;;1.77;;
47519;SDS011;33252;48.122;11.538;2022-10-26T14:35:16;7.25;;;2.00;;
47519;SDS011;33252;48.122;11.538;2022-10-26T14:40:15;5.15;;;1.33;;
47519;SDS011;33252;48.122;11.538;2022-10-26T14:42:42;5.03;;;1.38;;
47519;SDS011;33252;48.122;11.538;2022-10-26T14:45:33;11.52;;;2.97;;
47519;SDS011;33252;48.122;11.538;2022-10-26T14:48:01;11.65;;;3.60;;
47519;SDS011;33252;48.122;11.538;2022-10-26T14:50:28;8.13;;;2.30;;
47519;SDS011;33252;48.122;11.538;2022-10-26T14:53:01;6.55;;;1.40;;
47519;SDS011;33252;48.122;11.538;2022-10-26T14:55:46;5.50;;;1.60;;
47519;SDS011;33252;48.122;11.538;2022-10-26T14:58:19;4.53;;;1.77;;
47519;SDS011;33252;48.122;11.538;2022-10-26T15:03:45;12.70;;;2.33;;
47519;SDS011;33252;48.122;11.538;2022-10-26T15:08:59;9.65;;;2.25;;
47519;SDS011;33252;48.122;11.538;2022-10-26T15:11:28;5.47;;;1.58;;
47519;SDS011;33252;48.122;11.538;2022-10-26T15:13:56;4.95;;;1.70;;
47519;SDS011;33252;48.122;11.538;2022-10-26T15:16:23;8.38;;;2.60;;
47519;SDS011;33252;48.122;11.538;2022-10-26T15:18:56;8.77;;;2.65;;
47519;SDS011;33252;48.122;11.538;2022-10-26T15:23:50;6.68;;;1.58;;
47519;SDS011;33252;48.122;11.538;2022-10-26T15:26:17;7.78;;;2.50;;
47519;SDS011;33252;48.122;11.538;2022-10-26T15:28:43;6.25;;;2.17;;
47519;SDS011;33252;48.122;11.538;2022-10-26T15:33:37;10.05;;;1.98;;
47519;SDS011;33252;48.122;11.538;2022-10-26T15:36:25;9.98;;;2.22;;
47519;SDS011;33252;48.122;11.538;2022-10-26T15:38:51;8.35;;;3.08;;
47519;SDS011;33252;48.122;11.538;2022-10-26T15:43:48;4.95;;;3.03;;
47519;SDS011;33252;48.122;11.538;2022-10-26T15:46:15;7.35;;;3.10;;
47519;SDS011;33252;48.122;11.538;2022-10-26T15:48:41;8.90;;;3.30;;
47519;SDS011;33252;48.122;11.538;2022-10-26T15:51:10;8.00;;;2.28;;
47519;SDS011;33252;48.122;11.538;2022-10-26T15:53:40;9.10;;;2.08;;
47519;SDS011;33252;48.122;11.538;2022-10-26T15:56:13;7.53;;;2.65;;
47519;SDS011;33252;48.122;11.538;2022-10-26T15:58:40;10.10;;;3.60;;
47519;SDS011;33252;48.122;11.538;2022-10-26T16:01:06;6.72;;;2.28;;
47519;SDS011;33252;48.122;11.538;2022-10-26T16:03:33;6.88;;;2.30;;
47519;SDS011;33252;48.122;11.538;2022-10-26T16:05:59;8.73;;;2.58;;
47519;SDS011;33252;48.122;11.538;2022-10-26T16:08:26;6.53;;;3.08;;
47519;SDS011;33252;48.122;11.538;2022-10-26T16:10:54;7.53;;;2.60;;
47519;SDS011;33252;48.122;11.538;2022-10-26T16:13:20;10.40;;;2.97;;
47519;SDS011;33252;48.122;11.538;2022-10-26T16:15:46;6.53;;;2.35;;
47519;SDS011;33252;48.122;11.538;2022-10-26T16:18:12;8.05;;;2.17;;
47519;SDS011;33252;48.122;11.538;2022-10-26T16:20:38;8.32;;;2.30;;
47519;SDS011;33252;48.122;11.538;2022-10-26T16:23:04;7.05;;;2.78;;
47519;SDS011;33252;48.122;11.538;2022-10-26T16:25:32;7.53;;;2.53;;
47519;SDS011;33252;48.122;11.538;2022-10-26T16:27:59;6.47;;;2.55;;
47519;SDS011;33252;48.122;11.538;2022-10-26T16:30:25;5.18;;;2.42;;
47519;SDS011;33252;48.122;11.538;2022-10-26T16:32:54;7.57;;;2.58;;
47519;SDS011;33252;48.122;11.538;2022-10-26T16:35:19;5.47;;;2.42;;
47519;SDS011;33252;48.122;11.538;2022-10-26T16:37:45;10.77;;;3.00;;
47519;SDS011;33252;48.122;11.538;2022-10-26T16:40:11;8.63;;;3.28;;
47519;SDS011;33252;48.122;11.538;2022-10-26T16:42:36;10.30;;;4.55;;
47519;SDS011;33252;48.122;11.538;2022-10-26T16:45:07;8.55;;;4.07;;
47519;SDS011;33252;48.122;11.538;2022-10-26T16:47:37;9.38;;;3.70;;
47519;SDS011;33252;48.122;11.538;2022-10-26T16:50:04;9.73;;;5.57;;
47519;SDS011;33252;48.122;11.538;2022-10-26T16:52:32;13.85;;;6.30;;
47519;SDS011;33252;48.122;11.538;2022-10-26T16:54:58;8.15;;;4.97;;
47519;SDS011;33252;48.122;11.538;2022-10-26T16:57:24;13.55;;;4.88;;
47519;SDS011;33252;48.122;11.538;2022-10-26T16:59:50;8.18;;;5.85;;
47519;SDS011;33252;48.122;11.538;2022-10-26T17:02:16;10.15;;;6.00;;
47519;SDS011;33252;48.122;11.538;2022-10-26T17:04:42;12.48;;;4.35;;
47519;SDS011;33252;48.122;11.538;2022-10-26T17:07:07;10.40;;;4.55;;
47519;SDS011;33252;48.122;11.538;2022-10-26T17:09:34;7.53;;;4.28;;
47519;SDS011;33252;48.122;11.538;2022-10-26T17:12:00;10.48;;;4.97;;
47519;SDS011;33252;48.122;11.538;2022-10-26T17:14:26;10.70;;;5.82;;
47519;SDS011;33252;48.122;11.538;2022-10-26T17:16:51;10.02;;;6.05;;
47519;SDS011;33252;48.122;11.538;2022-10-26T17:19:17;11.23;;;5.35;;
47519;SDS011;33252;48.122;11.538;2022-10-26T17:21:43;10.57;;;5.35;;
47519;SDS011;33252;48.122;11.538;2022-10-26T17:24:09;8.48;;;5.10;;
47519;SDS011;33252;48.122;11.538;2022-10-26T17:26:35;13.25;;;6.68;;
47519;SDS011;33252;48.122;11.538;2022-10-26T17:29:01;11.38;;;6.28;;
47519;SDS011;33252;48.122;11.538;2022-10-26T17:31:27;9.77;;;5.28;;
47519;SDS011;33252;48.122;11.538;2022-10-26T17:33:53;10.93;;;5.03;;
47519;SDS011;33252;48.122;11.538;2022-10-26T17:36:21;13.93;;;5.80;;